createdAt,value
2022-12-11T00:01:14.832Z,16.60
2022-12-11T00:03:59.774Z,17.31
2022-12-11T00:06:44.716Z,17.67
2022-12-11T00:09:29.677Z,17.95
2022-12-11T00:12:14.607Z,18.41
2022-12-11T00:14:59.633Z,18.54
2022-12-11T00:17:44.463Z,18.48
2022-12-11T00:20:29.454Z,18.63
2022-12-11T00:23:14.387Z,18.50
2022-12-11T00:25:59.190Z,18.77
2022-12-11T00:28:44.139Z,18.73
2022-12-11T00:31:29.016Z,18.91
2022-12-11T00:34:13.917Z,18.44
2022-12-11T00:36:58.951Z,18.47
2022-12-11T00:39:43.983Z,18.53
2022-12-11T00:42:28.786Z,17.63
2022-12-11T00:45:13.809Z,17.46
2022-12-11T00:47:58.673Z,17.67
2022-12-11T00:50:43.662Z,16.49
2022-12-11T00:53:28.558Z,15.46
2022-12-11T00:56:13.463Z,15.23
2022-12-11T00:58:58.552Z,15.06
2022-12-11T01:01:43.357Z,14.99
2022-12-11T01:04:28.347Z,14.67
2022-12-11T01:07:13.180Z,14.49
2022-12-11T01:09:58.122Z,14.65
2022-12-11T01:12:42.986Z,14.92
2022-12-11T01:15:27.891Z,14.97
2022-12-11T01:18:12.784Z,14.92
2022-12-11T01:20:57.527Z,15.63
2022-12-11T01:23:42.510Z,15.56
2022-12-11T01:26:27.364Z,14.97
2022-12-11T01:29:12.285Z,15.11
2022-12-11T01:31:57.070Z,15.39
2022-12-11T01:34:41.950Z,15.45
2022-12-11T01:37:26.755Z,15.34
2022-12-11T01:40:11.853Z,15.34
2022-12-11T01:42:56.644Z,15.60
2022-12-11T01:45:41.717Z,15.41
2022-12-11T01:48:26.774Z,16.03
2022-12-11T01:51:11.578Z,15.86
2022-12-11T01:53:56.587Z,15.48
2022-12-11T01:56:41.448Z,15.32
2022-12-11T01:59:26.463Z,15.70
2022-12-11T02:02:11.385Z,15.58
2022-12-11T02:04:56.233Z,15.12
2022-12-11T02:07:41.152Z,15.46
2022-12-11T02:10:26.141Z,16.22
2022-12-11T02:13:11.100Z,16.33
2022-12-11T02:15:55.864Z,16.42
2022-12-11T02:18:40.889Z,16.28
2022-12-11T02:21:25.748Z,15.77
2022-12-11T02:24:10.840Z,16.05
2022-12-11T02:26:55.678Z,15.90
2022-12-11T02:29:40.625Z,15.76
2022-12-11T02:32:25.542Z,16.06
2022-12-11T02:35:10.757Z,16.30
2022-12-11T02:37:56.060Z,16.76
2022-12-11T02:40:40.925Z,16.71
2022-12-11T02:43:25.791Z,17.33
2022-12-11T02:46:10.734Z,16.86
2022-12-11T02:48:55.658Z,17.05
2022-12-11T02:51:40.698Z,17.50
2022-12-11T02:54:25.397Z,16.85
2022-12-11T02:57:10.350Z,17.35
2022-12-11T02:59:55.285Z,17.51
2022-12-11T03:02:40.306Z,17.97
2022-12-11T03:05:25.087Z,17.25
2022-12-11T03:08:10.166Z,17.44
2022-12-11T03:10:54.920Z,17.68
2022-12-11T03:13:39.713Z,17.97
2022-12-11T03:16:24.538Z,18.11
2022-12-11T03:19:09.457Z,18.27
2022-12-11T03:21:54.308Z,18.10
2022-12-11T03:24:39.008Z,17.60
2022-12-11T03:27:23.968Z,17.54
2022-12-11T03:30:08.816Z,18.07
2022-12-11T03:32:53.808Z,17.92
2022-12-11T03:35:38.635Z,17.70
2022-12-11T03:38:23.473Z,18.53
2022-12-11T03:41:08.349Z,18.55
2022-12-11T03:43:53.281Z,19.25
2022-12-11T03:46:38.270Z,19.19
2022-12-11T03:49:23.260Z,19.00
2022-12-11T03:52:08.219Z,19.14
2022-12-11T03:54:53.143Z,18.08
2022-12-11T03:57:38.210Z,18.47
2022-12-11T04:00:23.087Z,17.51
2022-12-11T04:03:12.920Z,18.02
2022-12-11T04:05:58.864Z,18.20
2022-12-11T04:08:43.656Z,18.21
2022-12-11T04:11:28.538Z,19.15
2022-12-11T04:14:13.323Z,19.02
2022-12-11T04:16:58.118Z,18.77
2022-12-11T04:19:42.969Z,18.93
2022-12-11T04:22:27.745Z,19.44
2022-12-11T04:25:12.780Z,18.89
2022-12-11T04:27:57.958Z,19.04
2022-12-11T04:30:42.790Z,18.95
2022-12-11T04:33:27.677Z,19.47
2022-12-11T04:36:12.728Z,18.58
2022-12-11T04:38:57.539Z,17.00
2022-12-11T04:41:42.484Z,17.64
2022-12-11T04:44:27.333Z,18.42
2022-12-11T04:47:12.141Z,18.57
2022-12-11T04:49:57.061Z,18.43
2022-12-11T04:52:41.875Z,18.36
2022-12-11T04:55:26.845Z,18.64
2022-12-11T04:58:11.775Z,17.72
2022-12-11T05:00:56.573Z,17.12
2022-12-11T05:03:41.565Z,17.27
2022-12-11T05:06:26.489Z,17.28
2022-12-11T05:09:11.249Z,16.92
2022-12-11T05:11:56.149Z,17.26
2022-12-11T05:14:41.178Z,17.60
2022-12-11T05:17:26.009Z,17.34
2022-12-11T05:20:11.066Z,17.50
2022-12-11T05:22:55.908Z,17.39
2022-12-11T05:25:40.976Z,16.77
2022-12-11T05:28:25.811Z,16.76
2022-12-11T05:31:10.764Z,16.91
2022-12-11T05:33:55.680Z,16.15
2022-12-11T05:36:40.592Z,16.22
2022-12-11T05:39:25.402Z,15.79
2022-12-11T05:42:10.226Z,16.33
2022-12-11T05:44:55.142Z,16.54
2022-12-11T05:47:39.878Z,16.27
2022-12-11T05:50:24.762Z,16.68
2022-12-11T05:53:09.679Z,17.60
2022-12-11T05:55:54.553Z,17.38
2022-12-11T05:58:39.381Z,17.96
2022-12-11T06:01:24.348Z,17.76
2022-12-11T06:04:09.304Z,16.68
2022-12-11T06:06:54.292Z,17.76
2022-12-11T06:09:39.276Z,17.30
2022-12-11T06:12:24.160Z,18.04
2022-12-11T06:15:09.505Z,17.33
2022-12-11T06:17:54.873Z,17.99
2022-12-11T06:20:39.811Z,18.25
2022-12-11T06:23:24.647Z,18.05
2022-12-11T06:26:09.514Z,17.44
2022-12-11T06:28:54.561Z,17.21
2022-12-11T06:31:39.577Z,16.98
2022-12-11T06:34:24.853Z,16.93
2022-12-11T06:37:09.728Z,16.38
2022-12-11T06:39:54.714Z,16.07
2022-12-11T06:42:39.602Z,15.92
2022-12-11T06:45:24.511Z,15.94
2022-12-11T06:48:09.438Z,15.62
2022-12-11T06:50:54.194Z,15.49
2022-12-11T06:53:39.215Z,16.24
2022-12-11T06:56:24.128Z,16.22
2022-12-11T06:59:09.103Z,16.10
2022-12-11T07:01:54.481Z,15.68
2022-12-11T07:04:39.911Z,15.47
2022-12-11T07:07:24.898Z,15.90
2022-12-11T07:10:09.802Z,16.75
2022-12-11T07:12:54.739Z,17.18
2022-12-11T07:15:40.616Z,17.24
2022-12-11T07:18:25.627Z,17.49
2022-12-11T07:21:10.463Z,18.05
2022-12-11T07:23:55.295Z,18.22
2022-12-11T07:26:40.239Z,18.25
2022-12-11T07:29:25.170Z,18.24
2022-12-11T07:32:10.354Z,18.32
2022-12-11T07:34:55.664Z,18.26
2022-12-11T07:37:40.761Z,19.45
2022-12-11T07:40:25.711Z,18.91
2022-12-11T07:43:10.613Z,18.90
2022-12-11T07:45:55.571Z,18.43
2022-12-11T07:48:40.449Z,18.19
2022-12-11T07:51:25.412Z,17.48
2022-12-11T07:54:10.374Z,17.00
2022-12-11T07:56:55.224Z,16.01
2022-12-11T07:59:40.078Z,15.95
2022-12-11T08:02:25.211Z,15.83
2022-12-11T08:05:10.422Z,15.09
2022-12-11T08:07:55.956Z,14.64
2022-12-11T08:10:40.821Z,15.32
2022-12-11T08:13:25.811Z,15.01
2022-12-11T08:16:10.730Z,14.97
2022-12-11T08:18:55.534Z,14.21
2022-12-11T08:21:40.607Z,13.15
2022-12-11T08:24:25.503Z,12.13
2022-12-11T08:27:10.400Z,10.69
2022-12-11T08:29:55.298Z,9.80
2022-12-11T08:32:40.230Z,9.67
2022-12-11T08:35:25.077Z,9.30
2022-12-11T08:38:09.948Z,8.88
2022-12-11T08:40:54.965Z,8.68
2022-12-11T08:43:39.866Z,9.28
2022-12-11T08:46:24.827Z,8.56
2022-12-11T08:49:10.037Z,8.86
2022-12-11T08:51:54.921Z,8.43
2022-12-11T08:54:39.740Z,8.21
2022-12-11T08:57:24.740Z,8.50
2022-12-11T09:00:09.705Z,10.95
2022-12-11T09:02:54.641Z,10.58
2022-12-11T09:05:40.125Z,11.33
2022-12-11T09:08:25.101Z,10.47
2022-12-11T09:11:10.101Z,10.62
2022-12-11T09:13:55.019Z,10.99
2022-12-11T09:16:39.980Z,10.60
2022-12-11T09:19:29.207Z,10.26
2022-12-11T09:22:17.144Z,10.05
2022-12-11T09:25:02.059Z,10.02
2022-12-11T09:27:47.028Z,10.55
2022-12-11T09:30:32.050Z,11.22
2022-12-11T09:33:17.002Z,9.79
2022-12-11T09:36:01.833Z,9.99
2022-12-11T09:38:46.699Z,10.01
2022-12-11T09:41:31.502Z,10.18
2022-12-11T09:44:16.500Z,10.97
2022-12-11T09:47:01.353Z,10.89
2022-12-11T09:49:46.056Z,10.58
2022-12-11T09:52:31.075Z,10.66
2022-12-11T09:55:16.070Z,10.52
2022-12-11T09:58:01.106Z,10.70
2022-12-11T10:00:45.998Z,10.29
2022-12-11T10:03:31.003Z,10.39
2022-12-11T10:06:15.817Z,10.56
2022-12-11T10:09:00.757Z,10.27
2022-12-11T10:11:45.553Z,10.02
2022-12-11T10:14:30.490Z,9.77
2022-12-11T10:17:16.002Z,9.91
2022-12-11T10:20:00.897Z,9.88
2022-12-11T10:22:45.798Z,10.07
2022-12-11T10:25:30.647Z,9.50
2022-12-11T10:28:15.561Z,9.50
2022-12-11T10:31:00.518Z,9.91
2022-12-11T10:33:45.371Z,9.59
2022-12-11T10:36:30.234Z,10.03
2022-12-11T10:39:15.021Z,10.00
2022-12-11T10:42:00.057Z,10.87
2022-12-11T10:44:45.269Z,10.39
2022-12-11T10:47:30.373Z,10.19
2022-12-11T10:50:15.299Z,9.32
2022-12-11T10:53:00.264Z,10.77
2022-12-11T10:55:45.219Z,9.09
2022-12-11T10:58:30.118Z,8.54
2022-12-11T11:01:15.244Z,8.88
2022-12-11T11:04:00.649Z,8.84
2022-12-11T11:06:45.636Z,9.28
2022-12-11T11:09:30.605Z,9.13
2022-12-11T11:12:15.506Z,9.26
2022-12-11T11:15:00.322Z,8.26
2022-12-11T11:17:54.246Z,7.91
2022-12-11T11:20:39.975Z,8.07
2022-12-11T11:23:25.068Z,7.93
2022-12-11T11:26:09.932Z,8.05
2022-12-11T11:28:54.980Z,8.78
2022-12-11T11:31:39.806Z,9.21
2022-12-11T11:34:24.718Z,10.63
2022-12-11T11:37:09.511Z,10.41
2022-12-11T11:39:54.452Z,11.40
2022-12-11T11:42:39.461Z,16.11
2022-12-11T11:45:24.327Z,19.74
2022-12-11T11:48:11.549Z,12.34
2022-12-11T11:50:56.546Z,12.53
2022-12-11T11:53:41.520Z,12.65
2022-12-11T11:56:26.439Z,12.03
2022-12-11T11:59:11.250Z,11.74
2022-12-11T12:01:56.150Z,12.23
2022-12-11T12:04:41.002Z,11.92
2022-12-11T12:07:25.933Z,11.44
2022-12-11T12:10:10.804Z,11.06
2022-12-11T12:12:56.173Z,10.64
2022-12-11T12:15:41.067Z,10.47
2022-12-11T12:18:25.957Z,10.90
2022-12-11T12:21:10.837Z,10.09
2022-12-11T12:23:55.689Z,9.93
2022-12-11T12:26:40.560Z,9.81
2022-12-11T12:29:25.518Z,10.18
2022-12-11T12:32:10.531Z,10.67
2022-12-11T12:34:55.463Z,10.65
2022-12-11T12:37:40.333Z,10.89
2022-12-11T12:40:25.137Z,10.77
2022-12-11T12:43:10.057Z,11.05
2022-12-11T12:45:55.058Z,11.13
2022-12-11T12:48:39.878Z,11.90
2022-12-11T12:51:24.833Z,12.13
2022-12-11T12:54:12.469Z,12.82
2022-12-11T12:56:57.745Z,12.98
2022-12-11T12:59:42.518Z,12.76
2022-12-11T13:02:27.437Z,12.52
2022-12-11T13:05:12.723Z,13.55
2022-12-11T13:07:57.900Z,13.47
2022-12-11T13:10:42.860Z,13.49
2022-12-11T13:13:27.678Z,12.99
2022-12-11T13:16:12.684Z,13.55
2022-12-11T13:18:57.428Z,13.20
2022-12-11T13:21:42.298Z,13.17
2022-12-11T13:24:27.308Z,13.52
2022-12-11T13:27:11.994Z,13.02
2022-12-11T13:29:56.923Z,13.61
2022-12-11T13:32:41.832Z,14.33
2022-12-11T13:35:26.763Z,13.65
2022-12-11T13:38:11.546Z,12.97
2022-12-11T13:40:56.498Z,13.29
2022-12-11T13:43:41.221Z,13.61
2022-12-11T13:46:26.053Z,13.20
2022-12-11T13:49:10.925Z,13.26
2022-12-11T13:51:55.914Z,13.06
2022-12-11T13:54:40.769Z,14.46
2022-12-11T13:57:25.659Z,12.27
2022-12-11T14:00:15.825Z,12.19
2022-12-11T14:03:02.556Z,12.63
2022-12-11T14:05:47.655Z,12.75
2022-12-11T14:08:33.664Z,13.03
2022-12-11T14:11:18.458Z,12.98
2022-12-11T14:14:03.420Z,13.59
2022-12-11T14:16:48.316Z,13.41
2022-12-11T14:19:33.149Z,13.54
2022-12-11T14:22:18.160Z,13.34
2022-12-11T14:25:03.064Z,18.73
2022-12-11T14:27:48.031Z,16.35
2022-12-11T14:30:32.992Z,17.09
2022-12-11T14:33:17.901Z,16.58
2022-12-11T14:36:02.727Z,19.06
2022-12-11T14:38:47.619Z,15.65
2022-12-11T14:41:32.519Z,16.10
2022-12-11T14:44:17.461Z,16.13
2022-12-11T14:47:02.618Z,15.22
2022-12-11T14:49:47.518Z,15.39
2022-12-11T14:52:32.509Z,15.46
2022-12-11T14:55:17.468Z,15.61
2022-12-11T14:58:02.478Z,15.32
2022-12-11T15:00:47.283Z,15.95
2022-12-11T15:03:32.301Z,16.96
2022-12-11T15:06:17.289Z,19.68
2022-12-11T15:09:02.312Z,20.67
2022-12-11T15:11:47.242Z,24.94
2022-12-11T15:14:32.124Z,17.66
2022-12-11T15:17:17.119Z,19.40
2022-12-11T15:20:01.932Z,16.93
2022-12-11T15:22:46.798Z,17.29
2022-12-11T15:25:31.681Z,21.08
2022-12-11T15:28:16.511Z,18.93
2022-12-11T15:31:01.293Z,19.38
2022-12-11T15:33:46.168Z,20.09
2022-12-11T15:36:31.237Z,23.08
2022-12-11T15:39:16.096Z,21.92
2022-12-11T15:42:01.055Z,28.28
2022-12-11T15:44:45.874Z,32.35
2022-12-11T15:47:30.927Z,22.42
2022-12-11T15:50:15.717Z,23.17
2022-12-11T15:53:00.621Z,23.50
2022-12-11T15:55:45.497Z,26.94
2022-12-11T15:58:30.510Z,24.84
2022-12-11T16:01:15.501Z,23.72
2022-12-11T16:04:04.645Z,27.66
2022-12-11T16:06:49.776Z,24.72
2022-12-11T16:09:34.710Z,22.09
2022-12-11T16:12:19.638Z,24.64
2022-12-11T16:15:04.569Z,30.71
2022-12-11T16:17:49.456Z,24.06
2022-12-11T16:20:34.535Z,25.79
2022-12-11T16:23:19.440Z,32.54
2022-12-11T16:26:04.305Z,30.82
2022-12-11T16:28:49.225Z,26.14
2022-12-11T16:31:34.343Z,21.53
2022-12-11T16:34:19.260Z,20.24
2022-12-11T16:37:04.075Z,20.55
2022-12-11T16:39:49.125Z,21.82
2022-12-11T16:42:33.862Z,22.29
2022-12-11T16:45:18.860Z,24.05
2022-12-11T16:48:03.683Z,22.88
2022-12-11T16:50:48.600Z,21.97
2022-12-11T16:53:33.393Z,26.87
2022-12-11T16:56:18.315Z,28.28
2022-12-11T16:59:03.124Z,24.38
2022-12-11T17:01:48.058Z,21.00
2022-12-11T17:04:32.974Z,26.31
2022-12-11T17:07:17.883Z,24.02
2022-12-11T17:10:02.697Z,21.89
2022-12-11T17:12:47.724Z,21.53
2022-12-11T17:15:32.683Z,20.51
2022-12-11T17:18:18.145Z,18.86
2022-12-11T17:21:02.974Z,18.98
2022-12-11T17:23:47.955Z,19.90
2022-12-11T17:26:32.970Z,20.39
2022-12-11T17:29:17.833Z,21.67
2022-12-11T17:32:02.594Z,22.69
2022-12-11T17:34:47.675Z,21.64
2022-12-11T17:37:32.661Z,20.89
2022-12-11T17:40:17.546Z,21.17
2022-12-11T17:43:02.458Z,21.21
2022-12-11T17:45:47.378Z,21.25
2022-12-11T17:48:32.337Z,21.48
2022-12-11T17:51:17.149Z,20.22
2022-12-11T17:54:02.047Z,19.52
2022-12-11T17:56:47.003Z,19.00
2022-12-11T17:59:31.853Z,17.88
2022-12-11T18:02:16.785Z,18.05
2022-12-11T18:05:01.531Z,18.93
2022-12-11T18:07:46.427Z,18.71
2022-12-11T18:10:31.238Z,18.52
2022-12-11T18:13:16.177Z,18.00
2022-12-11T18:16:01.112Z,17.85
2022-12-11T18:18:45.973Z,18.34
2022-12-11T18:21:30.785Z,18.00
2022-12-11T18:24:15.586Z,17.75
2022-12-11T18:27:00.351Z,17.20
2022-12-11T18:29:45.227Z,17.42
2022-12-11T18:32:30.132Z,16.44
2022-12-11T18:35:15.103Z,16.60
2022-12-11T18:37:59.964Z,17.49
2022-12-11T18:40:44.742Z,18.23
2022-12-11T18:43:29.844Z,18.23
2022-12-11T18:46:14.641Z,18.79
2022-12-11T18:48:59.671Z,19.02
2022-12-11T18:51:44.555Z,19.53
2022-12-11T18:54:29.465Z,19.39
2022-12-11T18:57:14.235Z,19.90
2022-12-11T18:59:59.380Z,19.59
2022-12-11T19:02:44.883Z,20.17
2022-12-11T19:05:29.706Z,19.79
2022-12-11T19:08:14.628Z,19.91
2022-12-11T19:10:59.406Z,19.76
2022-12-11T19:13:44.390Z,20.11
2022-12-11T19:16:29.371Z,20.55
2022-12-11T19:19:14.253Z,21.00
2022-12-11T19:21:59.128Z,20.71
2022-12-11T19:24:44.124Z,19.95
2022-12-11T19:27:28.922Z,20.29
2022-12-11T19:30:13.925Z,20.44
2022-12-11T19:32:58.894Z,20.88
2022-12-11T19:35:43.773Z,20.68
2022-12-11T19:38:28.758Z,21.02
2022-12-11T19:41:13.623Z,21.63
2022-12-11T19:43:58.661Z,21.14
2022-12-11T19:46:43.567Z,21.28
2022-12-11T19:49:28.466Z,20.96
2022-12-11T19:52:13.406Z,21.35
2022-12-11T19:54:58.322Z,21.71
2022-12-11T19:57:43.393Z,22.54
2022-12-11T20:00:28.314Z,22.91
2022-12-11T20:03:13.197Z,23.48
2022-12-11T20:05:57.918Z,23.03
2022-12-11T20:08:45.739Z,23.45
2022-12-11T20:11:31.473Z,23.29
2022-12-11T20:14:16.506Z,37.06
2022-12-11T20:17:11.907Z,31.37
2022-12-11T20:19:57.336Z,23.94
2022-12-11T20:22:42.372Z,22.91
2022-12-11T20:25:27.346Z,22.51
2022-12-11T20:28:12.231Z,21.51
2022-12-11T20:30:57.006Z,22.04
2022-12-11T20:33:41.964Z,22.97
2022-12-11T20:36:26.788Z,21.81
2022-12-11T20:39:11.672Z,21.58
2022-12-11T20:41:56.626Z,21.49
2022-12-11T20:44:45.648Z,22.37
2022-12-11T20:47:33.958Z,21.92
2022-12-11T20:50:19.021Z,21.67
2022-12-11T20:53:03.926Z,22.10
2022-12-11T20:55:48.812Z,22.46
2022-12-11T20:58:33.692Z,24.10
2022-12-11T21:01:18.589Z,22.64
2022-12-11T21:04:03.415Z,22.74
2022-12-11T21:06:48.393Z,23.13
2022-12-11T21:09:33.480Z,22.03
2022-12-11T21:12:18.448Z,22.25
2022-12-11T21:15:03.259Z,22.33
2022-12-11T21:17:48.121Z,22.21
2022-12-11T21:20:33.069Z,21.78
2022-12-11T21:23:18.012Z,22.30
2022-12-11T21:26:02.981Z,21.72
2022-12-11T21:28:47.794Z,21.62
2022-12-11T21:31:32.717Z,21.77
2022-12-11T21:34:23.558Z,21.69
2022-12-11T21:37:10.304Z,22.46
2022-12-11T21:39:55.217Z,22.24
2022-12-11T21:42:40.121Z,21.66
2022-12-11T21:45:59.702Z,20.90
2022-12-11T21:48:29.993Z,20.88
2022-12-11T21:51:14.971Z,21.92
2022-12-11T21:53:59.866Z,20.47
2022-12-11T21:56:44.736Z,19.48
2022-12-11T21:59:29.539Z,19.86
2022-12-11T22:02:14.430Z,19.80
2022-12-11T22:04:59.343Z,19.17
2022-12-11T22:07:44.240Z,18.62
2022-12-11T22:10:29.076Z,17.98
2022-12-11T22:13:13.876Z,18.53
2022-12-11T22:15:58.882Z,18.60
2022-12-11T22:18:43.639Z,18.66
2022-12-11T22:21:28.497Z,18.17
2022-12-11T22:24:13.320Z,17.75
2022-12-11T22:26:58.311Z,17.59
2022-12-11T22:29:43.172Z,17.33
2022-12-11T22:32:27.952Z,17.40
2022-12-11T22:35:13.252Z,17.46
2022-12-11T22:37:58.305Z,17.13
2022-12-11T22:40:43.233Z,17.16
2022-12-11T22:43:28.060Z,16.74
2022-12-11T22:46:12.885Z,16.64
2022-12-11T22:48:57.671Z,16.98
2022-12-11T22:51:42.726Z,16.44
2022-12-11T22:54:27.537Z,16.34
2022-12-11T22:57:12.602Z,16.29
2022-12-11T22:59:57.439Z,15.94
2022-12-11T23:02:42.426Z,16.36
2022-12-11T23:05:27.800Z,16.42
2022-12-11T23:08:12.826Z,15.80
2022-12-11T23:10:58.077Z,15.99
2022-12-11T23:13:42.929Z,15.48
2022-12-11T23:16:27.842Z,15.57
2022-12-11T23:19:13.131Z,15.42
2022-12-11T23:21:58.036Z,15.75
2022-12-11T23:24:43.122Z,16.14
2022-12-11T23:27:28.038Z,15.68
2022-12-11T23:30:13.005Z,15.13
2022-12-11T23:32:58.005Z,16.02
2022-12-11T23:35:42.866Z,15.67
2022-12-11T23:38:27.649Z,15.07
2022-12-11T23:41:12.583Z,14.56
2022-12-11T23:43:57.420Z,15.25
2022-12-11T23:46:42.308Z,14.36
2022-12-11T23:49:27.179Z,14.57
2022-12-11T23:52:11.936Z,14.91
2022-12-11T23:54:56.816Z,15.18
2022-12-11T23:57:41.642Z,14.91
